This demonstration page uses our WeatherBlox Daily Observations layout. Learn more.

Left ArrowRight Arrow

41.86663, -103.66717

Hourly Observations for August 28, 2020

Temp ( °F °C ) Dew Point ( °F °C ) Humidity (%) Winds ( mph kmh ) Pressure ( in mb ) Visibility ( mi km ) Precip ( " mm )
12:53 am 00:53 Clear 71 21.7 54 12.2 55 55 N 15 24 29.7 1006 10 16.0934 0 0
1:53 am 01:53 Clear 70 21.1 55 12.8 59 59 NNE 14 22 29.7 1006 10 16.0934 0 0
2:53 am 02:53 Clear 67 19.4 58 14.4 73 73 NW 9 15 29.75 1008 10 16.0934 0 0
3:53 am 03:53 Clear 68 20 56 13.3 65 65 WNW 7 11 29.8 1009 10 16.0934 0 0
4:53 am 04:53 Clear 64 17.8 57 13.9 78 78 W 7 11 29.83 1010 10 16.0934 0 0
5:53 am 05:53 Clear 63 17.2 57 13.9 81 81 WNW 10 17 29.87 1011 10 16.0934 0 0
6:53 am 06:53 Sunny 64 17.8 55 12.8 73 73 WNW 7 11 29.91 1013 10 16.0934 0 0
7:53 am 07:53 Sunny 68 20 50 10 53 53 undefined N/A 29.94 1014 10 16.0934 0 0
8:53 am 08:53 Sunny 72 22.2 50 10 46 46 NW 10 17 29.94 1014 10 16.0934 0 0
9:53 am 09:53 Sunny 77 25 49 9.4 37 37 NW 13 20 29.97 1015 10 16.0934 0 0
10:53 am 10:53 Sunny 80 26.7 46 7.8 30 30 NNW 10 17 29.97 1015 10 16.0934 0 0
11:53 am 11:53 Sunny 81 27.2 41 5 24 24 N 14 22 29.96 1015 10 16.0934 0 0
12:53 pm 12:53 Sunny 85 29.4 30 -1.1 14 14 N 12 19 29.94 1014 10 16.0934 0 0
1:53 pm 13:53 Sunny 86 30 29 -1.7 13 13 N 13 20 29.93 1013 10 16.0934 0 0
2:53 pm 14:53 Sunny 88 31.1 33 0.6 14 14 NNW 13 20 29.91 1013 10 16.0934 0 0
3:53 pm 15:53 Sunny 88 31.1 34 1.1 15 15 N 10 17 29.9 1012 10 16.0934 0 0
4:53 pm 16:53 Sunny 85 29.4 39 3.9 20 20 E 8 13 29.92 1013 10 16.0934 0 0
5:53 pm 17:53 Sunny 82 27.8 46 7.8 28 28 ENE 13 20 29.96 1014 10 16.0934 0 0
6:53 pm 18:53 Sunny 77 25 49 9.4 37 37 E 8 13 29.98 1015 10 16.0934 0 0
7:53 pm 19:53 Clear 71 21.7 48 8.9 44 44 ENE 8 13 30 1016 10 16.0934 0 0
8:53 pm 20:53 Clear 69 20.6 47 8.3 45 45 ENE 9 15 30.02 1017 10 16.0934 0 0
9:53 pm 21:53 Clear 65 18.3 47 8.3 52 52 E 8 13 30.02 1017 10 16.0934 0 0
10:53 pm 22:53 Clear 62 16.7 48 8.9 60 60 SE 5 7 30.02 1017 10 16.0934 0 0
11:53 pm 23:53 Clear 62 16.7 47 8.3 58 58 ESE 5 7 30.02 1017 10 16.0934 0 0

Powered by AerisWeather